CheckWX is a tool to help pilots better visualize weather data.  It is not intended as a substitute for an official pre-flight weather briefing.

16:24:23 UTC

KPSM TAF
Portsmouth International at Pease Airport
Portsmouth, New Hampshire, USA
KPSM 281729Z 2818/2918 22010G20KT P6SM SCT040 FM282300 21008KT P6SM SCT030 FM290300 20008KT P6SM BKN010 FM291400 21009G20KT P6SM SCT050

May-28@
18:00 UTC

May-28 @ 18:00 UTC

May-28@
23:00 UTC

May-28 @ 23:00 UTC

TAF KPSM 281729Z 2818/2918 22010G20KT P6SM SCT040

Expired

Wind
  • 220° at 10 KTS
  • {Gusting to 20 KTS
Cloud Levels
  • Scattered at 4,000' AGL

May-28@
23:00 UTC

May-28 @ 23:00 UTC

May-29@
03:00 UTC

May-29 @ 03:00 UTC

FM282300 21008KT P6SM SCT030

Expired

Wind
  • 210° at 8 KTS
Cloud Levels
  • Scattered at 3,000' AGL

May-29@
03:00 UTC

May-29 @ 03:00 UTC

May-29@
14:00 UTC

May-29 @ 14:00 UTC

FM290300 20008KT P6SM BKN010

Expired

Wind
  • 200° at 8 KTS
Cloud Levels
  • Broken at 1,000' AGL

May-29@
14:00 UTC

May-29 @ 14:00 UTC

May-29@
18:00 UTC

May-29 @ 18:00 UTC

FM291400 21009G20KT P6SM SCT050

From

From Standard forecast or significant change

Wind
  • 210° at 9 KTS
  • {Gusting to 20 KTS
Cloud Levels
  • Scattered at 5,000' AGL